Time;durP1;ratioP1;P1;durP2;ratioP2;P2;SDS_P1;SDS_P2;PMS_P1;PMS_P2;Temp;Humidity;BMP_temperature;BMP_pressure;BME280_temperature;BME280_humidity;BME280_pressure;Samples;Min_cycle;Max_cycle;Signal;HPM_P1;HPM_P2
2022/06/11 00:02:03;;;;;;;1281.20;999.90;;;15.20;78.80;;;;;;4984774;28;20306;-70
2022/06/11 00:04:41;;;;;;;1298.63;999.90;;;15.20;78.70;;;;;;4984808;28;20714;-70
2022/06/11 00:07:17;;;;;;;1286.40;999.90;;;15.20;78.70;;;;;;4983737;28;20323;-70
2022/06/11 00:09:43;;;;;;;1292.87;999.90;;;15.20;78.50;;;;;;4964034;28;20812;-70
2022/06/11 00:12:11;;;;;;;1330.87;999.90;;;15.10;78.70;;;;;;4955369;28;20722;-70
2022/06/11 00:14:37;;;;;;;1311.43;999.90;;;15.00;78.70;;;;;;4982968;28;20574;-70
2022/06/11 00:17:06;;;;;;;1301.00;999.90;;;15.00;78.80;;;;;;4965803;28;20373;-70
2022/06/11 00:19:33;;;;;;;1262.47;999.90;;;14.90;78.90;;;;;;4973637;28;20884;-70
2022/06/11 00:21:59;;;;;;;1283.03;999.90;;;14.90;79.00;;;;;;4965155;28;20304;-70
2022/06/11 00:24:27;;;;;;;1273.53;999.90;;;14.80;79.20;;;;;;4967133;28;20352;-70
2022/06/11 00:26:55;;;;;;;1250.23;999.90;;;14.70;79.30;;;;;;4968016;28;20298;-70
2022/06/11 00:29:23;;;;;;;1265.27;999.90;;;14.60;79.60;;;;;;4975372;28;20797;-70
2022/06/11 00:31:50;;;;;;;1369.40;999.90;;;14.60;79.60;;;;;;4969920;28;20293;-70
2022/06/11 00:34:17;;;;;;;1336.93;999.90;;;14.50;79.50;;;;;;4982562;28;20841;-70
2022/06/11 00:36:44;;;;;;;1364.10;999.90;;;14.50;79.60;;;;;;4979575;28;21033;-70
2022/06/11 00:39:12;;;;;;;1350.27;999.90;;;14.40;79.70;;;;;;4976842;28;20694;-71
2022/06/11 00:41:41;;;;;;;1242.00;999.90;;;14.40;79.70;;;;;;4955830;28;20309;-70
2022/06/11 00:44:07;;;;;;;1348.00;999.90;;;14.40;79.90;;;;;;4980929;28;20320;-70
2022/06/11 00:46:49;;;;;;;1362.13;999.90;;;14.40;80.20;;;;;;4986316;28;20846;-70
2022/06/11 00:49:28;;;;;;;1307.50;999.90;;;14.30;80.10;;;;;;4983912;28;20368;-70
2022/06/11 00:52:03;;;;;;;1325.93;999.90;;;14.30;80.10;;;;;;4984755;28;20619;-70
2022/06/11 00:54:32;;;;;;;1287.97;999.90;;;14.20;80.10;;;;;;4976252;28;20781;-70
2022/06/11 00:57:00;;;;;;;1233.33;999.90;;;14.20;80.10;;;;;;4991676;28;20297;-70
2022/06/11 00:59:48;;;;;;;1309.27;999.90;;;14.10;80.30;;;;;;4974965;28;20298;-70
2022/06/11 01:02:15;;;;;;;1366.33;999.90;;;14.10;80.30;;;;;;4978574;28;20296;-70
2022/06/11 01:04:54;;;;;;;1272.77;999.90;;;14.00;81.30;;;;;;4979012;28;20328;-70
2022/06/11 01:07:32;;;;;;;1277.67;999.90;;;14.00;81.20;;;;;;4980393;28;20301;-70
2022/06/11 01:10:15;;;;;;;1220.73;999.90;;;13.90;81.10;;;;;;4979990;28;20297;-70
2022/06/11 01:13:06;;;;;;;1148.93;996.73;;;13.90;81.50;;;;;;4970921;28;20270;-70
2022/06/11 01:15:50;;;;;;;1211.03;999.90;;;13.80;82.20;;;;;;4986542;28;20324;-70
2022/06/11 01:18:45;;;;;;;1159.00;999.90;;;13.80;82.30;;;;;;4996604;28;20286;-70
2022/06/11 01:21:42;;;;;;;1150.90;999.90;;;13.80;82.40;;;;;;4968730;28;20274;-70
2022/06/11 01:24:17;;;;;;;1117.37;994.87;;;13.80;81.90;;;;;;4967333;28;20051;-70
2022/06/11 01:27:15;;;;;;;1238.57;999.90;;;13.80;82.20;;;;;;4969971;28;20299;-70
2022/06/11 01:29:48;;;;;;;1150.33;999.90;;;13.80;82.20;;;;;;4976476;28;20048;-70
2022/06/11 01:32:42;;;;;;;1143.47;999.90;;;13.70;82.30;;;;;;4980679;28;20322;-70
2022/06/11 01:35:10;;;;;;;1190.07;999.90;;;13.70;82.30;;;;;;4982708;28;20325;-70
2022/06/11 01:37:41;;;;;;;1281.70;999.90;;;13.60;82.70;;;;;;4968989;28;20343;-70
2022/06/11 01:40:27;;;;;;;1304.93;999.90;;;13.60;82.80;;;;;;4969513;28;20861;-70
2022/06/11 01:42:58;;;;;;;1184.63;999.90;;;13.60;82.90;;;;;;4979333;28;20309;-70
2022/06/11 01:45:32;;;;;;;1248.87;999.90;;;13.60;83.10;;;;;;4969395;28;20694;-70
2022/06/11 01:47:59;;;;;;;1212.03;999.90;;;13.60;83.60;;;;;;4957254;28;20285;-70
2022/06/11 01:50:29;;;;;;;1279.60;999.90;;;13.60;83.20;;;;;;4975146;28;20289;-70
2022/06/11 01:52:54;;;;;;;1211.50;999.90;;;13.60;84.00;;;;;;4976624;28;20290;-70
2022/06/11 01:55:55;;;;;;;1305.17;999.90;;;13.60;84.20;;;;;;4985306;28;20332;-70
2022/06/11 01:58:58;;;;;;;1247.43;999.90;;;13.70;84.30;;;;;;4968012;28;20507;-70
2022/06/11 02:01:37;;;;;;;1285.67;999.90;;;13.70;84.50;;;;;;4989160;28;20285;-70
2022/06/11 02:04:22;;;;;;;1381.40;999.90;;;13.70;84.30;;;;;;4988891;28;20355;-70
2022/06/11 02:06:53;;;;;;;1302.65;999.90;;;13.70;84.50;;;;;;4972856;28;20643;-70
2022/06/11 02:09:41;;;;;;;1273.13;999.90;;;13.80;84.70;;;;;;4987627;28;20046;-70
2022/06/11 02:12:26;;;;;;;1272.87;999.90;;;13.80;84.50;;;;;;4994234;28;21123;-70
2022/06/11 02:14:57;;;;;;;1351.55;999.90;;;13.90;84.90;;;;;;4985658;28;20300;-70
2022/06/11 02:17:28;;;;;;;1305.33;999.90;;;13.90;84.50;;;;;;4988085;28;20069;-70
2022/06/11 02:20:03;;;;;;;1286.70;999.90;;;13.90;84.30;;;;;;4986789;28;20285;-70
2022/06/11 02:22:33;;;;;;;;;;;13.90;84.40;;;;;;4967586;28;20309;-70
2022/06/11 02:25:08;;;;;;;1184.33;999.90;;;13.90;84.90;;;;;;4978815;28;19926;-70
2022/06/11 02:27:35;;;;;;;1216.93;989.15;;;13.80;84.60;;;;;;4983117;28;20302;-70
2022/06/11 02:30:04;;;;;;;1267.43;999.90;;;13.80;84.30;;;;;;4985452;28;20121;-70
2022/06/11 02:32:32;;;;;;;1391.27;999.90;;;13.80;84.80;;;;;;4988524;28;20285;-70
2022/06/11 02:35:02;;;;;;;1389.07;999.90;;;13.70;84.60;;;;;;4981036;28;20331;-70
2022/06/11 02:37:36;;;;;;;1289.37;999.90;;;13.70;84.90;;;;;;4979242;28;20770;-70
2022/06/11 02:40:19;;;;;;;1247.07;999.90;;;13.70;85.10;;;;;;4978867;28;20301;-70
2022/06/11 02:42:46;;;;;;;1311.37;999.90;;;13.70;85.20;;;;;;4962767;28;20078;-70
2022/06/11 02:45:13;;;;;;;1350.27;999.90;;;13.70;85.10;;;;;;4998014;28;20813;-70
2022/06/11 02:47:42;;;;;;;1273.70;999.90;;;13.70;85.40;;;;;;4988185;28;20843;-70
2022/06/11 02:50:08;;;;;;;1266.93;999.90;;;13.70;85.30;;;;;;4970110;28;20312;-70
2022/06/11 02:52:34;;;;;;;1264.07;999.90;;;13.70;85.30;;;;;;4971530;28;20377;-70
2022/06/11 02:55:00;;;;;;;1354.60;999.90;;;13.70;85.10;;;;;;4964798;28;20787;-70
2022/06/11 02:57:33;;;;;;;1293.00;999.90;;;13.70;85.20;;;;;;4987589;28;20078;-70
2022/06/11 02:59:59;;;;;;;1357.77;999.90;;;13.70;85.20;;;;;;4978509;28;20062;-70
2022/06/11 03:02:25;;;;;;;1293.93;999.90;;;13.70;85.10;;;;;;4967616;28;20347;-70
2022/06/11 03:04:52;;;;;;;1323.90;999.90;;;13.70;85.20;;;;;;4962007;28;20042;-70
2022/06/11 03:07:18;;;;;;;1390.90;999.90;;;13.80;85.50;;;;;;4986255;28;20399;-70
2022/06/11 03:09:44;;;;;;;1334.30;999.90;;;13.80;85.40;;;;;;4964618;28;20309;-70
2022/06/11 03:12:12;;;;;;;1388.77;999.90;;;13.80;85.20;;;;;;4963846;28;20282;-71
2022/06/11 03:14:39;;;;;;;1277.10;999.90;;;13.90;85.80;;;;;;4977252;28;20282;-70
2022/06/11 03:17:05;;;;;;;1336.90;999.90;;;13.90;85.60;;;;;;4984271;28;20816;-71
2022/06/11 03:19:31;;;;;;;1360.10;999.90;;;13.90;85.50;;;;;;4965906;28;20372;-71
2022/06/11 03:21:57;;;;;;;1356.87;999.90;;;14.00;85.20;;;;;;4985461;28;20797;-71
2022/06/11 03:24:25;;;;;;;1452.90;999.90;;;14.00;85.20;;;;;;4982013;28;20568;-71
2022/06/11 03:26:51;;;;;;;1389.97;999.90;;;14.00;85.10;;;;;;4984661;28;20057;-71
2022/06/11 03:29:20;;;;;;;1327.47;999.90;;;14.00;85.30;;;;;;4977818;28;20285;-71
2022/06/11 03:31:46;;;;;;;1484.80;999.90;;;14.00;85.20;;;;;;4957198;28;20794;-70
2022/06/11 03:34:13;;;;;;;1432.97;999.90;;;14.00;85.60;;;;;;4975958;28;20289;-70
2022/06/11 03:36:40;;;;;;;1439.10;999.90;;;13.90;85.30;;;;;;4977418;28;20293;-70
2022/06/11 03:39:06;;;;;;;1528.93;999.90;;;13.90;85.60;;;;;;4966357;28;20374;-70
2022/06/11 03:41:32;;;;;;;1446.07;999.90;;;13.90;85.60;;;;;;4969445;28;20809;-70
2022/06/11 03:43:58;;;;;;;1450.43;999.90;;;13.90;85.80;;;;;;4977600;28;20710;-70
2022/06/11 03:46:24;;;;;;;1386.30;999.90;;;14.00;85.60;;;;;;4961526;28;20337;-70
2022/06/11 03:48:51;;;;;;;1522.47;999.90;;;14.00;85.60;;;;;;4997927;28;20038;-70
2022/06/11 03:51:17;;;;;;;1470.47;999.90;;;14.00;85.60;;;;;;4970224;28;20285;-70
2022/06/11 03:53:44;;;;;;;1439.77;999.90;;;14.00;85.40;;;;;;4986802;28;20301;-70
2022/06/11 03:56:11;;;;;;;1549.57;999.90;;;14.00;85.40;;;;;;4987136;28;20886;-70
2022/06/11 03:58:39;;;;;;;1633.67;999.90;;;14.00;85.40;;;;;;4984831;28;20309;-70
2022/06/11 04:01:18;;;;;;;1534.00;999.90;;;14.00;85.40;;;;;;4969179;28;20285;-70
2022/06/11 04:03:51;;;;;;;1569.00;999.90;;;14.10;85.40;;;;;;4968732;28;20293;-70
2022/06/11 04:06:21;;;;;;;1423.37;999.90;;;14.10;85.40;;;;;;4984928;28;20889;-70
2022/06/11 04:08:46;;;;;;;1501.27;999.90;;;14.10;85.40;;;;;;4981473;28;20289;-70
2022/06/11 04:11:13;;;;;;;1493.00;999.90;;;14.20;85.30;;;;;;4983438;28;20730;-70
2022/06/11 04:13:42;;;;;;;1534.27;999.90;;;14.20;85.70;;;;;;4969929;28;20104;-70
2022/06/11 04:16:18;;;;;;;1504.70;999.90;;;14.20;85.50;;;;;;4978619;28;20340;-70
2022/06/11 04:18:44;;;;;;;1268.63;999.90;;;14.30;85.50;;;;;;4985906;28;20282;-70
2022/06/11 04:21:12;;;;;;;1558.23;999.90;;;14.30;85.60;;;;;;4984196;28;20294;-70
2022/06/11 04:23:40;;;;;;;1666.77;999.90;;;14.40;85.60;;;;;;4985327;28;20635;-70
2022/06/11 04:26:09;;;;;;;1842.17;999.90;;;14.40;85.60;;;;;;4984209;28;20822;-71
2022/06/11 04:28:35;;;;;;;1743.17;999.90;;;14.50;85.70;;;;;;4985109;28;20301;-71
2022/06/11 04:31:04;;;;;;;1816.23;999.90;;;14.60;85.60;;;;;;4938366;28;20308;-71
2022/06/11 04:33:30;;;;;;;1999.90;999.90;;;14.70;85.30;;;;;;4957598;28;20286;-71
2022/06/11 04:35:56;;;;;;;1999.90;999.90;;;14.90;84.80;;;;;;4992115;28;20282;-71
2022/06/11 04:38:22;;;;;;;1923.73;999.90;;;15.10;84.30;;;;;;4972928;28;20352;-71
2022/06/11 04:40:48;;;;;;;1730.57;999.90;;;15.30;83.10;;;;;;4999025;28;20054;-71
2022/06/11 04:43:14;;;;;;;1814.43;999.90;;;15.50;83.00;;;;;;4984459;28;20830;-71
2022/06/11 04:45:41;;;;;;;1968.40;999.90;;;15.90;82.10;;;;;;4966116;28;20297;-71
2022/06/11 04:48:07;;;;;;;1999.90;999.90;;;16.40;80.40;;;;;;4984573;28;20581;-71
2022/06/11 04:50:34;;;;;;;1999.90;999.90;;;16.70;78.90;;;;;;4980188;28;20656;-71
2022/06/11 04:53:00;;;;;;;1999.90;999.90;;;16.80;78.10;;;;;;4972581;28;20328;-71
2022/06/11 04:55:26;;;;;;;1895.63;999.90;;;17.00;76.30;;;;;;4991939;28;20282;-71
2022/06/11 04:57:53;;;;;;;1859.77;999.90;;;17.10;76.70;;;;;;4973121;28;20290;-71
2022/06/11 05:00:24;;;;;;;1972.27;999.90;;;17.40;76.20;;;;;;4983907;28;20132;-71
2022/06/11 05:02:50;;;;;;;1867.70;999.90;;;17.60;74.50;;;;;;4984774;28;20777;-71
2022/06/11 05:05:16;;;;;;;1760.30;999.90;;;17.70;74.80;;;;;;4974419;28;20339;-71
2022/06/11 05:07:43;;;;;;;1839.00;999.90;;;18.00;74.70;;;;;;4985107;28;20336;-71
2022/06/11 05:10:11;;;;;;;1753.67;999.90;;;18.20;73.70;;;;;;4953230;28;20301;-71
2022/06/11 05:12:37;;;;;;;1710.53;999.90;;;18.20;73.50;;;;;;4973784;28;20286;-71
2022/06/11 05:15:03;;;;;;;1750.67;999.90;;;17.90;74.30;;;;;;4977322;28;20288;-71
2022/06/11 05:17:29;;;;;;;1999.67;999.90;;;18.10;74.10;;;;;;4944348;28;20034;-71
2022/06/11 05:19:55;;;;;;;1843.13;999.90;;;18.30;73.00;;;;;;4985416;28;20376;-71
2022/06/11 05:22:21;;;;;;;1742.83;999.90;;;18.50;73.00;;;;;;4963553;28;20377;-71
2022/06/11 05:24:46;;;;;;;1946.07;999.90;;;18.70;72.10;;;;;;4979387;28;20050;-71
2022/06/11 05:27:17;;;;;;;1820.67;999.90;;;19.00;71.10;;;;;;4962478;28;20043;-71
2022/06/11 05:30:08;;;;;;;1869.60;999.90;;;18.80;71.10;;;;;;4980812;28;20034;-71
2022/06/11 05:32:37;;;;;;;1833.20;999.90;;;18.80;71.00;;;;;;4969175;28;20291;-71
2022/06/11 05:35:09;;;;;;;1704.70;999.90;;;18.80;70.90;;;;;;4984459;28;20282;-71
2022/06/11 05:37:35;;;;;;;1744.97;999.90;;;18.80;71.00;;;;;;4978688;28;20315;-71
2022/06/11 05:40:02;;;;;;;1875.43;999.90;;;18.80;71.20;;;;;;4962673;28;20289;-71
2022/06/11 05:42:27;;;;;;;1928.63;999.90;;;18.90;70.60;;;;;;4969394;28;20085;-71
2022/06/11 05:44:53;;;;;;;1999.90;999.90;;;19.10;70.10;;;;;;4962112;28;20297;-71
2022/06/11 05:47:22;;;;;;;1887.50;999.90;;;19.20;69.30;;;;;;4977204;28;20406;-71
2022/06/11 05:49:53;;;;;;;1980.07;999.90;;;19.40;69.70;;;;;;4964330;28;20034;-71
2022/06/11 05:52:25;;;;;;;1620.93;999.90;;;19.60;68.50;;;;;;4968396;28;20293;-71
2022/06/11 05:54:52;;;;;;;1666.53;999.90;;;19.70;68.30;;;;;;4985087;28;20339;-71
2022/06/11 05:57:21;;;;;;;1987.23;999.90;;;19.60;67.60;;;;;;4977041;28;20324;-71
2022/06/11 05:59:52;;;;;;;1929.93;982.20;;;19.30;68.00;;;;;;4984965;28;20622;-71
2022/06/11 06:02:20;;;;;;;1968.77;999.90;;;19.40;67.50;;;;;;4980381;28;20293;-71
2022/06/11 06:04:46;;;;;;;1961.47;999.90;;;19.70;67.20;;;;;;4975976;28;20286;-71
2022/06/11 06:07:12;;;;;;;1999.90;999.90;;;19.90;66.70;;;;;;4965229;28;20305;-71
2022/06/11 06:09:38;;;;;;;1999.90;999.90;;;19.90;65.60;;;;;;4960233;28;20201;-71
2022/06/11 06:12:05;;;;;;;1999.90;999.90;;;20.00;65.70;;;;;;4983348;28;20403;-71
2022/06/11 06:14:31;;;;;;;1871.73;999.90;;;20.30;65.70;;;;;;4972323;28;20286;-71
2022/06/11 06:16:57;;;;;;;1999.90;999.90;;;20.20;64.90;;;;;;4976581;28;20681;-71
2022/06/11 06:19:22;;;;;;;1999.90;999.90;;;20.30;65.40;;;;;;4972847;28;20286;-71
2022/06/11 06:21:49;;;;;;;1999.90;999.90;;;20.10;64.30;;;;;;4981686;28;20523;-71
2022/06/11 06:24:15;;;;;;;1999.90;999.90;;;19.90;65.20;;;;;;4950898;28;20050;-71
2022/06/11 06:26:40;;;;;;;1989.33;945.07;;;20.00;65.50;;;;;;4968008;28;20376;-71
2022/06/11 06:29:07;;;;;;;1999.90;999.90;;;20.10;64.90;;;;;;4983455;28;20409;-71
2022/06/11 06:31:33;;;;;;;1921.07;999.90;;;20.00;65.50;;;;;;4967944;28;20537;-71
2022/06/11 06:34:01;;;;;;;1871.70;999.90;;;20.30;65.10;;;;;;4974343;28;20778;-71
2022/06/11 06:36:32;;;;;;;1807.07;999.90;;;20.60;64.60;;;;;;4957278;28;20285;-72
2022/06/11 06:38:57;;;;;;;1866.53;999.90;;;20.60;63.70;;;;;;4984707;28;20845;-71
2022/06/11 06:41:23;;;;;;;1730.00;962.13;;;20.30;64.30;;;;;;4951576;28;20301;-71
2022/06/11 06:43:50;;;;;;;1821.67;999.90;;;20.20;64.10;;;;;;4955774;28;20161;-71
2022/06/11 06:46:17;;;;;;;1950.13;999.90;;;20.10;64.00;;;;;;4967215;28;20046;-71
2022/06/11 06:48:43;;;;;;;1769.47;997.33;;;20.20;64.10;;;;;;4983696;28;20725;-71
2022/06/11 06:51:10;;;;;;;1716.33;999.90;;;20.30;64.10;;;;;;4983391;28;20277;-71
2022/06/11 06:53:42;;;;;;;1846.10;999.90;;;20.20;64.50;;;;;;4979107;28;20038;-71
2022/06/11 06:56:08;;;;;;;1999.90;999.90;;;19.80;64.90;;;;;;4966584;28;20633;-71
2022/06/11 06:58:34;;;;;;;1826.27;999.90;;;19.70;64.80;;;;;;4982125;28;20297;-71
2022/06/11 07:01:02;;;;;;;1999.90;999.90;;;19.50;65.30;;;;;;4988288;28;20363;-72
2022/06/11 07:03:28;;;;;;;1959.57;998.37;;;19.30;65.10;;;;;;4980175;28;20336;-71
2022/06/11 07:05:54;;;;;;;1999.90;999.90;;;19.30;66.50;;;;;;4942245;28;20156;-71
2022/06/11 07:08:21;;;;;;;1721.03;974.57;;;19.20;66.00;;;;;;4976812;28;20797;-71
2022/06/11 07:10:52;;;;;;;1629.60;982.30;;;19.40;66.20;;;;;;4966639;28;20117;-71
2022/06/11 07:13:19;;;;;;;1752.77;999.90;;;19.50;65.30;;;;;;4983273;28;20785;-71
2022/06/11 07:15:48;;;;;;;1730.57;999.90;;;19.60;65.40;;;;;;4986722;28;20517;-71
2022/06/11 07:18:33;;;;;;;1876.20;999.90;;;19.60;65.40;;;;;;4977335;28;20042;-72
2022/06/11 07:21:02;;;;;;;1684.72;999.90;;;19.40;64.50;;;;;;4968161;28;20042;-71
2022/06/11 07:23:39;;;;;;;1989.60;999.90;;;19.40;65.30;;;;;;4983227;28;20034;-71
2022/06/11 07:26:10;;;;;;;1804.07;999.90;;;19.40;65.60;;;;;;4982485;28;20731;-71
2022/06/11 07:28:43;;;;;;;1795.53;999.90;;;19.30;65.70;;;;;;4969685;28;20057;-72
2022/06/11 07:31:09;;;;;;;1792.97;999.90;;;19.00;65.80;;;;;;4967019;28;20147;-71
2022/06/11 07:33:35;;;;;;;1981.17;999.90;;;18.80;66.10;;;;;;4968793;28;20529;-72
2022/06/11 07:36:00;;;;;;;1999.90;999.90;;;18.70;66.50;;;;;;4982599;28;20523;-71
2022/06/11 07:38:26;;;;;;;1974.73;999.90;;;18.50;66.30;;;;;;4963758;28;20046;-71
2022/06/11 07:40:52;;;;;;;1751.07;999.90;;;18.50;66.30;;;;;;4968583;28;20034;-71
2022/06/11 07:43:18;;;;;;;1853.17;999.90;;;18.40;66.40;;;;;;4970059;28;20070;-71
2022/06/11 07:45:44;;;;;;;1696.10;999.90;;;18.40;66.40;;;;;;4970085;28;20507;-71
2022/06/11 07:48:11;;;;;;;1657.27;999.90;;;18.40;67.50;;;;;;4966497;28;20046;-71
2022/06/11 07:50:41;;;;;;;1705.57;999.90;;;18.50;67.00;;;;;;4982226;28;20277;-71
2022/06/11 07:53:08;;;;;;;1833.73;999.90;;;18.60;66.80;;;;;;4984103;28;20286;-71
2022/06/11 07:55:35;;;;;;;1670.63;999.90;;;18.70;65.50;;;;;;4985733;28;20364;-71
2022/06/11 07:58:02;;;;;;;1576.93;999.90;;;18.70;65.60;;;;;;4982618;28;20782;-71
2022/06/11 08:00:40;;;;;;;1770.13;999.90;;;18.80;65.50;;;;;;4985384;28;20290;-71
2022/06/11 08:03:06;;;;;;;1563.93;999.90;;;18.90;65.30;;;;;;4983033;28;20343;-71
2022/06/11 08:05:33;;;;;;;1760.10;999.90;;;18.90;63.90;;;;;;4983920;28;20858;-71
2022/06/11 08:07:59;;;;;;;1656.60;999.90;;;18.90;64.10;;;;;;4950224;28;20414;-71
2022/06/11 08:10:27;;;;;;;1924.93;999.90;;;18.90;64.50;;;;;;4955470;28;20325;-71
2022/06/11 08:12:53;;;;;;;1800.20;999.90;;;19.00;64.20;;;;;;4984408;28;20035;-71
2022/06/11 08:15:19;;;;;;;1834.67;999.90;;;19.10;63.10;;;;;;4974756;28;20301;-71
2022/06/11 08:17:45;;;;;;;1666.30;999.90;;;19.20;63.00;;;;;;4988851;28;20050;-71
2022/06/11 08:20:14;;;;;;;1614.87;999.90;;;19.30;62.60;;;;;;4959852;28;20817;-71
2022/06/11 08:22:40;;;;;;;1738.50;992.73;;;19.20;62.50;;;;;;4991040;28;20368;-71
2022/06/11 08:25:06;;;;;;;1917.70;999.90;;;19.30;62.70;;;;;;4980814;28;20306;-71
2022/06/11 08:27:32;;;;;;;1811.80;999.90;;;19.30;63.00;;;;;;4984518;28;20049;-71
2022/06/11 08:29:58;;;;;;;1773.53;999.90;;;19.40;62.70;;;;;;4968444;28;20285;-71
2022/06/11 08:32:24;;;;;;;1636.97;999.90;;;19.50;62.40;;;;;;4966953;28;20620;-71
2022/06/11 08:34:50;;;;;;;1763.23;999.90;;;19.50;61.20;;;;;;4975773;28;20606;-71
2022/06/11 08:37:17;;;;;;;1806.73;999.90;;;19.50;61.10;;;;;;4965431;28;20046;-71
2022/06/11 08:39:43;;;;;;;1551.47;999.90;;;19.60;60.10;;;;;;4968053;28;20399;-71
2022/06/11 08:42:30;;;;;;;1843.40;999.90;;;19.70;60.40;;;;;;4963016;28;20324;-71
2022/06/11 08:44:58;;;;;;;1502.23;999.90;;;19.60;61.20;;;;;;4984098;28;20043;-71
2022/06/11 08:47:35;;;;;;;1558.27;999.90;;;19.60;60.80;;;;;;4985746;28;20073;-71
2022/06/11 08:50:02;;;;;;;1673.13;999.90;;;19.60;58.10;;;;;;4962973;28;20105;-71
2022/06/11 08:52:31;;;;;;;1639.40;999.90;;;19.60;58.40;;;;;;4985872;28;20043;-72
2022/06/11 08:54:59;;;;;;;1449.17;999.90;;;19.60;59.90;;;;;;4986458;28;20285;-72
2022/06/11 08:57:35;;;;;;;1782.30;999.90;;;19.70;59.20;;;;;;4969648;28;20304;-72
2022/06/11 09:00:16;;;;;;;1495.50;999.90;;;19.70;58.50;;;;;;4982187;28;20334;-72
2022/06/11 09:02:45;;;;;;;1182.37;999.90;;;19.80;59.10;;;;;;4976935;28;20047;-71
2022/06/11 09:05:44;;;;;;;1173.37;999.90;;;19.90;58.40;;;;;;4976811;28;20498;-71
2022/06/11 09:08:41;;;;;;;1176.53;999.90;;;20.00;59.10;;;;;;4972851;28;20055;-71
2022/06/11 09:11:14;;;;;;;1172.30;999.90;;;20.10;58.40;;;;;;4982632;28;20483;-71
2022/06/11 09:14:18;;;;;;;1207.73;999.90;;;20.10;57.40;;;;;;4965351;28;20046;-72
2022/06/11 09:16:55;;;;;;;1202.60;999.90;;;20.10;57.80;;;;;;4967274;28;20069;-72
2022/06/11 09:19:43;;;;;;;1177.37;999.90;;;20.10;58.30;;;;;;4980386;28;20585;-72
2022/06/11 09:22:33;;;;;;;1196.37;999.90;;;20.20;58.30;;;;;;4971492;28;20076;-71
2022/06/11 09:25:23;;;;;;;1221.70;999.90;;;20.30;57.00;;;;;;4969504;28;20042;-71
2022/06/11 09:27:57;;;;;;;1201.87;999.90;;;20.30;57.90;;;;;;4979724;28;20061;-72
2022/06/11 09:30:39;;;;;;;1139.43;999.90;;;20.30;58.40;;;;;;4979021;28;20249;-73
2022/06/11 09:33:16;;;;;;;1149.73;999.90;;;20.30;57.00;;;;;;4971920;28;20034;-72
2022/06/11 09:35:44;;;;;;;1187.20;999.90;;;20.40;57.40;;;;;;4961791;28;20072;-72
2022/06/11 09:38:33;;;;;;;1170.03;999.90;;;20.50;57.90;;;;;;4992819;28;20082;-72
2022/06/11 09:41:29;;;;;;;1176.20;999.90;;;20.50;58.50;;;;;;4971459;28;20054;-72
2022/06/11 09:44:25;;;;;;;1185.10;999.90;;;20.50;57.70;;;;;;4982977;28;20034;-72
2022/06/11 09:47:01;;;;;;;1212.73;999.90;;;20.60;54.70;;;;;;4968970;28;20034;-72
2022/06/11 09:49:59;;;;;;;1149.57;999.90;;;20.20;53.90;;;;;;4984345;28;20080;-72
2022/06/11 09:52:41;;;;;;;1179.03;999.90;;;20.20;55.50;;;;;;4965483;28;20050;-72
2022/06/11 09:55:34;;;;;;;1161.60;999.90;;;20.20;54.40;;;;;;4973584;28;20145;-72
2022/06/11 09:58:26;;;;;;;1252.60;999.90;;;20.30;56.10;;;;;;4967263;28;20082;-72
2022/06/11 10:00:57;;;;;;;1223.40;999.90;;;20.30;55.90;;;;;;4993476;28;20103;-72
2022/06/11 10:03:47;;;;;;;1139.27;999.90;;;20.30;55.70;;;;;;4978960;28;20418;-72
2022/06/11 10:06:18;;;;;;;1227.37;999.90;;;20.50;56.90;;;;;;4980763;28;20062;-71
2022/06/11 10:08:48;;;;;;;1222.27;999.90;;;20.60;56.60;;;;;;4999238;28;20042;-71
2022/06/11 10:11:21;;;;;;;1192.80;999.90;;;20.80;55.80;;;;;;4979513;28;20088;-71
2022/06/11 10:14:28;;;;;;;1171.87;999.90;;;20.80;54.20;;;;;;4965951;28;20121;-71
2022/06/11 10:16:48;;;;;;;1290.93;999.90;;;20.80;54.80;;;;;;4979062;28;20046;-71
2022/06/11 10:19:27;;;;;;;1219.80;999.90;;;20.70;55.70;;;;;;4975409;28;20050;-71
2022/06/11 10:22:03;;;;;;;1323.23;999.90;;;20.70;56.10;;;;;;4991575;28;20524;-71
2022/06/11 10:24:32;;;;;;;1231.57;999.90;;;20.70;55.40;;;;;;4992778;28;20089;-71
2022/06/11 10:27:05;;;;;;;1186.73;999.90;;;20.80;54.70;;;;;;4981512;28;20050;-71
2022/06/11 10:29:47;;;;;;;1188.70;999.90;;;20.90;53.70;;;;;;4981710;28;20124;-71
2022/06/11 10:32:15;;;;;;;1207.17;999.90;;;21.00;53.70;;;;;;4967897;28;20039;-72
2022/06/11 10:35:21;;;;;;;1167.00;999.90;;;20.90;54.20;;;;;;4993783;28;20074;-72
2022/06/11 10:38:15;;;;;;;1176.83;999.90;;;21.00;52.50;;;;;;4967100;28;20053;-71
2022/06/11 10:40:44;;;;;;;1234.87;999.90;;;21.00;52.90;;;;;;4974306;28;20208;-71
2022/06/11 10:43:47;;;;;;;1269.17;999.90;;;21.00;52.30;;;;;;4970041;28;20124;-71
2022/06/11 10:46:12;;;;;;;1202.63;999.90;;;21.00;52.60;;;;;;4942789;28;20053;-71
2022/06/11 10:48:39;;;;;;;1312.07;999.90;;;20.90;53.00;;;;;;4979565;28;20050;-71
2022/06/11 10:51:18;;;;;;;1220.67;999.90;;;20.80;53.00;;;;;;4958553;28;20042;-71
2022/06/11 10:53:56;;;;;;;1329.07;999.90;;;20.90;54.40;;;;;;4973810;28;20078;-71
2022/06/11 10:56:34;;;;;;;1508.73;999.90;;;20.60;53.50;;;;;;4981387;28;20066;-71
2022/06/11 10:59:06;;;;;;;1405.07;999.90;;;20.60;54.10;;;;;;4982680;28;20047;-71
2022/06/11 11:01:46;;;;;;;1339.70;999.90;;;20.40;53.00;;;;;;4962352;28;20038;-71
2022/06/11 11:04:14;;;;;;;1329.70;999.90;;;20.30;53.00;;;;;;4984595;28;20073;-71
2022/06/11 11:06:42;;;;;;;1229.43;999.90;;;20.40;54.50;;;;;;4981098;28;20062;-71
2022/06/11 11:09:21;;;;;;;1419.13;999.90;;;20.60;55.30;;;;;;4979006;28;20038;-71
2022/06/11 11:12:00;;;;;;;1188.13;999.90;;;20.80;54.70;;;;;;4962101;28;20038;-71
2022/06/11 11:14:40;;;;;;;1197.03;999.90;;;20.70;53.30;;;;;;4984901;28;20042;-71
2022/06/11 11:17:15;;;;;;;1215.10;999.90;;;20.80;53.90;;;;;;4966749;28;20046;-71
2022/06/11 11:19:45;;;;;;;1162.28;999.90;;;20.90;54.50;;;;;;4967734;28;20068;-71
2022/06/11 11:22:20;;;;;;;1158.37;999.90;;;21.00;53.10;;;;;;4983180;28;20473;-71
2022/06/11 11:24:50;;;;;;;1302.00;999.90;;;20.90;52.90;;;;;;4977533;28;20434;-71
2022/06/11 11:27:25;;;;;;;1254.00;999.90;;;21.00;54.60;;;;;;4976994;28;20046;-71
2022/06/11 11:29:55;;;;;;;;;;;20.80;53.70;;;;;;4980918;28;20093;-72
2022/06/11 11:32:35;;;;;;;1199.03;999.90;;;21.00;54.70;;;;;;5000571;28;19928;-71
2022/06/11 11:35:20;;;;;;;1219.97;999.90;;;21.00;54.40;;;;;;4984709;28;20034;-71
2022/06/11 11:37:59;;;;;;;1310.28;999.90;;;21.10;55.90;;;;;;4985329;28;20042;-72
2022/06/11 11:40:35;;;;;;;1181.23;999.90;;;21.10;54.70;;;;;;4987063;28;20077;-72
2022/06/11 11:43:09;;;;;;;1300.37;999.90;;;21.20;54.50;;;;;;4985038;28;20046;-72
2022/06/11 11:46:02;;;;;;;1301.78;999.90;;;21.30;54.50;;;;;;4970662;28;20605;-71
2022/06/11 11:48:52;;;;;;;1190.73;999.90;;;21.30;54.20;;;;;;4970019;28;20529;-72
2022/06/11 11:51:40;;;;;;;1208.20;999.90;;;21.20;52.50;;;;;;4985050;28;20050;-71
2022/06/11 11:54:17;;;;;;;1153.03;999.90;;;21.30;53.40;;;;;;4986035;28;20407;-70
2022/06/11 11:56:54;;;;;;;1221.00;999.90;;;21.40;54.50;;;;;;4965482;28;20116;-71
2022/06/11 11:59:28;;;;;;;1196.93;999.90;;;21.30;53.30;;;;;;4973633;28;20058;-71
2022/06/11 12:02:13;;;;;;;1190.25;999.90;;;21.30;54.40;;;;;;4979135;28;20047;-71
2022/06/11 12:04:51;;;;;;;1178.72;999.90;;;21.40;53.60;;;;;;4998816;28;20077;-71
2022/06/11 12:07:21;;;;;;;1236.33;999.90;;;21.60;53.10;;;;;;4978765;28;20074;-71
2022/06/11 12:09:52;;;;;;;1252.00;999.90;;;21.60;52.80;;;;;;4975299;28;20039;-71
2022/06/11 12:12:21;;;;;;;1258.53;999.90;;;21.30;53.40;;;;;;4985266;28;20610;-69
2022/06/11 12:14:55;;;;;;;1173.23;999.90;;;21.20;54.30;;;;;;4973297;28;20047;-70
2022/06/11 12:18:13;;;;;;;1245.80;999.90;;;21.20;54.70;;;;;;4997406;28;20368;-72
2022/06/11 12:20:41;;;;;;;1201.43;999.90;;;21.50;54.30;;;;;;4950032;28;20523;-72
2022/06/11 12:23:33;;;;;;;1217.23;999.90;;;21.80;56.10;;;;;;4955720;28;20093;-71
2022/06/11 12:26:16;;;;;;;1214.87;999.90;;;22.10;55.20;;;;;;4975431;28;20043;-72
2022/06/11 12:29:18;;;;;;;1251.67;999.90;;;22.10;54.40;;;;;;4978936;28;20116;-70